High wind

Not for real navigation. The accuracy of this data is not assured See disclaimer for more information



ICAO NAME COUNTRY WIND Kt GUST Kt VIS m TEMP/DEW C BARO METAR
ENSF 43 0 9999 14/9 29.44 ENSF 181220Z AUTO 23043KT 9999NDV SCT019/// SCT100/// 14/09 Q0997 W///S5
ENQR 42 0 9999 14/9 29.38 ENQR 181220Z AUTO 23042KT 9999NDV SCT021/// BKN100/// 14/09 Q0995 W///S6
ENFB Oslo / Fornebu Norway 41 0 9999 14/9 29.44 ENFB 181220Z AUTO 22041KT 9999NDV SCT021/// SCT082/// 14/09 Q0997 W///S5
ENSE 39 0 9999 14/9 29.44 ENSE 181220Z AUTO 23039KT 9999NDV FEW021/// SCT096/// 14/09 Q0997 W///S6
ENQA 38 0 9999 15/11 29.56 ENQA 181220Z AUTO 22038KT 9999NDV FEW027/// BKN056/// 15/11 Q1001 W13/S5

Show more